Time;durP1;ratioP1;P1;durP2;ratioP2;P2;SDS_P1;SDS_P2;PMS_P1;PMS_P2;Temp;Humidity;BMP_temperature;BMP_pressure;BME280_temperature;BME280_humidity;BME280_pressure;Samples;Min_cycle;Max_cycle;Signal;HPM_P1;HPM_P2
2023/07/22 00:02:27;;;;;;;8.82;4.28;;;26.70;53.40;;;;;;10495750;28;20132;-33
2023/07/22 00:07:29;;;;;;;6.47;3.83;;;26.60;53.30;;;;;;10495746;28;20045;-36
2023/07/22 00:12:32;;;;;;;5.68;4.20;;;26.60;53.30;;;;;;10499443;28;20110;-36
2023/07/22 00:17:34;;;;;;;7.50;4.43;;;26.60;53.40;;;;;;10485339;28;20445;-37
2023/07/22 00:22:36;;;;;;;6.07;4.18;;;26.50;53.00;;;;;;10497342;28;20039;-36
2023/07/22 00:27:39;;;;;;;4.88;3.78;;;26.50;53.30;;;;;;10489592;28;20408;-35
2023/07/22 00:32:41;;;;;;;7.03;4.38;;;26.40;53.20;;;;;;10491300;28;20072;-36
2023/07/22 00:37:43;;;;;;;4.70;2.63;;;26.40;53.20;;;;;;10493737;28;20080;-36
2023/07/22 00:42:46;;;;;;;5.50;3.20;;;26.30;53.30;;;;;;10495629;28;20474;-36
2023/07/22 00:47:48;;;;;;;5.03;2.90;;;26.40;53.20;;;;;;10492940;28;20047;-37
2023/07/22 00:52:50;;;;;;;3.80;2.60;;;26.20;53.50;;;;;;10493811;28;20496;-37
2023/07/22 00:57:53;;;;;;;4.03;2.47;;;26.30;53.00;;;;;;10498749;28;20477;-36
2023/07/22 01:02:55;;;;;;;5.10;2.78;;;26.30;53.20;;;;;;10495134;28;20479;-35
2023/07/22 01:07:57;;;;;;;2.53;2.05;;;26.30;53.20;;;;;;10495338;28;20484;-36
2023/07/22 01:13:00;;;;;;;3.13;2.38;;;26.20;53.30;;;;;;10500908;28;20169;-36
2023/07/22 01:18:04;;;;;;;4.50;2.95;;;26.30;53.30;;;;;;10493371;28;20139;-36
2023/07/22 01:23:07;;;;;;;3.67;2.38;;;26.20;53.30;;;;;;10493403;28;20131;-36
2023/07/22 01:28:11;;;;;;;4.75;2.58;;;26.20;53.30;;;;;;10492662;28;20725;-35
2023/07/22 01:33:13;;;;;;;3.17;2.25;;;26.20;53.30;;;;;;10484984;28;20052;-36
2023/07/22 01:38:18;;;;;;;3.25;2.15;;;25.90;53.60;;;;;;10492324;28;20147;-36
2023/07/22 01:43:21;;;;;;;1.98;1.75;;;26.10;53.30;;;;;;10485582;28;20066;-36
2023/07/22 01:48:23;;;;;;;5.63;2.30;;;26.10;53.30;;;;;;10489766;28;20056;-36
2023/07/22 01:53:26;;;;;;;3.58;2.15;;;26.00;53.40;;;;;;10487716;28;20432;-36
2023/07/22 01:58:28;;;;;;;2.97;1.73;;;26.00;53.10;;;;;;10491794;28;20088;-36
2023/07/22 02:03:31;;;;;;;3.90;2.25;;;26.00;53.20;;;;;;10492264;28;20045;-37
2023/07/22 02:08:36;;;;;;;3.50;2.20;;;26.00;53.20;;;;;;10497128;28;20047;-36
2023/07/22 02:13:38;;;;;;;2.30;2.03;;;26.00;53.20;;;;;;10497773;28;20078;-36
2023/07/22 02:18:40;;;;;;;3.35;2.15;;;26.00;53.10;;;;;;10492944;28;20398;-37
2023/07/22 02:23:43;;;;;;;2.42;1.83;;;25.90;53.00;;;;;;10491134;28;20064;-36
2023/07/22 02:28:46;;;;;;;4.53;2.17;;;25.90;53.10;;;;;;10490243;28;20451;-35
2023/07/22 02:33:48;;;;;;;2.38;1.67;;;25.90;52.90;;;;;;10488649;28;20055;-35
2023/07/22 02:38:51;;;;;;;2.70;1.90;;;25.90;52.90;;;;;;10488490;28;20131;-35
2023/07/22 02:43:53;;;;;;;2.17;1.70;;;25.80;53.00;;;;;;10488056;28;20045;-36
2023/07/22 02:48:55;;;;;;;2.92;1.60;;;25.80;52.80;;;;;;10494029;28;20159;-36
2023/07/22 02:53:58;;;;;;;1.92;1.58;;;25.80;53.10;;;;;;10483869;28;20037;-35
2023/07/22 03:15:31;;;;;;;2.40;1.60;;;25.80;52.60;;;;;;10511771;27;20577;-35
2023/07/22 03:20:32;;;;;;;3.88;1.65;;;25.70;53.20;;;;;;10523820;28;20529;-36
2023/07/22 03:25:35;;;;;;;3.10;1.15;;;25.60;53.10;;;;;;10526567;28;20066;-37
2023/07/22 03:30:38;;;;;;;1.85;1.30;;;25.60;53.10;;;;;;10520460;28;20098;-36
2023/07/22 03:35:40;;;;;;;1.65;1.40;;;25.50;53.00;;;;;;10528246;28;20036;-37
2023/07/22 03:40:42;;;;;;;2.25;1.45;;;25.50;52.90;;;;;;10524178;28;20476;-39
2023/07/22 03:45:45;;;;;;;2.25;1.52;;;25.50;53.00;;;;;;10506553;28;20098;-37
2023/07/22 03:50:47;;;;;;;2.03;1.50;;;25.50;53.10;;;;;;10524976;28;20451;-37
2023/07/22 03:55:49;;;;;;;2.90;1.52;;;25.50;53.00;;;;;;10542096;28;20130;-37
2023/07/22 04:00:52;;;;;;;8.45;1.75;;;25.50;53.00;;;;;;10528031;28;20533;-37
2023/07/22 04:05:55;;;;;;;1.83;1.35;;;25.50;53.20;;;;;;10513460;28;20044;-35
2023/07/22 04:10:58;;;;;;;3.15;1.65;;;25.50;53.10;;;;;;10518017;28;20086;-37
2023/07/22 04:16:01;;;;;;;1.90;1.38;;;25.50;53.10;;;;;;10518765;28;20064;-37
2023/07/22 04:21:03;;;;;;;2.08;1.60;;;25.40;53.30;;;;;;10540226;28;20048;-39
2023/07/22 04:26:07;;;;;;;3.15;2.00;;;25.40;53.40;;;;;;10499629;28;20106;-33
2023/07/22 04:31:10;;;;;;;1.95;1.70;;;25.40;53.50;;;;;;10494871;28;20489;-36
2023/07/22 04:36:12;;;;;;;2.35;1.80;;;25.30;53.60;;;;;;10487847;28;20118;-36
2023/07/22 04:41:14;;;;;;;4.07;2.20;;;25.40;53.60;;;;;;10493183;28;20080;-37
2023/07/22 04:46:18;;;;;;;3.20;2.10;;;25.40;53.70;;;;;;10494067;28;20048;-36
2023/07/22 04:51:20;;;;;;;3.35;2.10;;;25.40;53.80;;;;;;10492285;28;20584;-37
2023/07/22 04:56:22;;;;;;;4.90;2.70;;;25.40;53.90;;;;;;10487886;28;20618;-36
2023/07/22 05:01:25;;;;;;;4.03;2.70;;;25.30;54.00;;;;;;10493229;28;20615;-37
2023/07/22 05:06:27;;;;;;;3.28;2.40;;;25.30;54.40;;;;;;10493931;28;20076;-36
2023/07/22 05:11:29;;;;;;;5.70;3.72;;;25.00;55.00;;;;;;10487961;28;20083;-37
2023/07/22 05:16:32;;;;;;;7.30;3.83;;;25.10;55.00;;;;;;10489435;28;20087;-36
2023/07/22 05:21:34;;;;;;;4.60;2.83;;;25.00;55.40;;;;;;10488752;28;20086;-36
2023/07/22 05:26:36;;;;;;;10.20;5.00;;;25.20;54.70;;;;;;10516772;28;20052;-36
2023/07/22 05:31:39;;;;;;;4.90;3.30;;;25.20;56.30;;;;;;10505896;28;20057;-35
2023/07/22 05:36:41;;;;;;;4.38;2.83;;;24.90;55.60;;;;;;10477419;28;20473;-36
2023/07/22 05:41:43;;;;;;;6.30;3.67;;;25.10;55.40;;;;;;10497378;28;20049;-36
2023/07/22 05:46:46;;;;;;;5.03;3.00;;;25.10;56.10;;;;;;10475590;28;20048;-34
2023/07/22 05:51:48;;;;;;;6.28;2.92;;;25.30;55.90;;;;;;10490784;28;20502;-36
2023/07/22 05:56:50;;;;;;;4.07;2.50;;;25.40;56.00;;;;;;10481109;28;20146;-35
2023/07/22 06:01:53;;;;;;;6.68;2.50;;;25.50;56.10;;;;;;10475667;28;20068;-33
2023/07/22 06:06:55;;;;;;;7.80;3.08;;;25.50;56.40;;;;;;10473136;28;20079;-36
2023/07/22 06:11:56;;;;;;;11.27;3.90;;;25.50;56.60;;;;;;10475211;28;20292;-36
2023/07/22 06:17:00;;;;;;;5.90;3.30;;;25.50;57.00;;;;;;10482921;28;20044;-36
2023/07/22 06:22:02;;;;;;;8.52;3.20;;;25.40;57.30;;;;;;10485228;28;20064;-36
2023/07/22 06:27:04;;;;;;;8.75;3.75;;;25.50;57.10;;;;;;10470587;28;20068;-37
2023/07/22 06:32:08;;;;;;;9.88;3.10;;;25.40;57.80;;;;;;10473356;28;20865;-36
2023/07/22 06:37:10;;;;;;;7.18;3.10;;;25.50;57.80;;;;;;10471167;28;20155;-36
2023/07/22 06:42:11;;;;;;;8.88;3.72;;;25.60;57.80;;;;;;10475534;28;20037;-35
2023/07/22 06:47:15;;;;;;;11.27;4.63;;;25.60;58.30;;;;;;10484432;28;20125;-36
2023/07/22 06:52:17;;;;;;;13.10;4.47;;;25.60;58.50;;;;;;10484826;28;20143;-36
2023/07/22 06:57:19;;;;;;;9.10;4.03;;;25.50;58.80;;;;;;10493279;28;20123;-36
2023/07/22 07:02:22;;;;;;;9.75;3.90;;;25.50;58.80;;;;;;10482678;28;20041;-35
2023/07/22 07:07:24;;;;;;;14.07;5.78;;;25.70;58.90;;;;;;10480740;28;20041;-36
2023/07/22 07:12:26;;;;;;;7.93;3.65;;;24.80;61.30;;;;;;10478634;28;20155;-36
2023/07/22 07:17:29;;;;;;;12.63;5.30;;;25.00;61.00;;;;;;10472810;28;20114;-35
2023/07/22 07:22:31;;;;;;;14.48;4.00;;;25.00;60.70;;;;;;10480757;28;20044;-36
2023/07/22 07:27:33;;;;;;;9.93;3.28;;;24.90;60.60;;;;;;10485893;28;20068;-36
2023/07/22 07:32:36;;;;;;;7.95;3.95;;;25.00;61.00;;;;;;10479125;28;20489;-37
2023/07/22 07:37:38;;;;;;;7.22;3.15;;;25.40;60.30;;;;;;10492341;28;20040;-38
2023/07/22 07:42:40;;;;;;;10.07;2.97;;;25.30;60.20;;;;;;10482077;28;20045;-35
2023/07/22 07:47:43;;;;;;;6.05;2.80;;;25.40;59.70;;;;;;10472088;28;20459;-36
2023/07/22 07:52:45;;;;;;;11.13;3.20;;;25.20;60.30;;;;;;10480314;28;20080;-36
2023/07/22 07:57:47;;;;;;;10.82;2.85;;;25.50;60.20;;;;;;10473176;28;20579;-35
2023/07/22 08:02:50;;;;;;;8.50;2.35;;;25.20;61.40;;;;;;10489544;28;20064;-35
2023/07/22 08:07:52;;;;;;;7.05;3.10;;;25.40;60.80;;;;;;10475191;28;20144;-36
2023/07/22 08:12:56;;;;;;;;;;;24.90;62.40;;;;;;10479637;28;20142;-34
2023/07/22 08:17:59;;;;;;;10.40;3.15;;;23.70;68.70;;;;;;10485914;28;19920;-35
2023/07/22 08:23:01;;;;;;;7.80;3.00;;;23.70;68.10;;;;;;10477740;28;20494;-36
2023/07/22 08:28:03;;;;;;;;;;;23.30;70.60;;;;;;10487134;28;20064;-37
2023/07/22 08:33:07;;;;;;;6.87;2.37;;;22.40;80.50;;;;;;10485293;28;19929;-36
2023/07/22 08:38:09;;;;;;;6.22;2.90;;;21.70;80.10;;;;;;10487696;28;20474;-35
2023/07/22 08:43:12;;;;;;;11.88;2.65;;;21.50;81.60;;;;;;10476531;28;20048;-38
2023/07/22 08:48:18;;;;;;;5.32;2.00;;;21.40;84.20;;;;;;10485885;28;20086;-36
2023/07/22 08:53:20;;;;;;;4.93;2.13;;;21.90;80.70;;;;;;10412237;28;20064;-35
2023/07/22 08:58:22;;;;;;;14.20;3.03;;;21.80;82.30;;;;;;10473086;28;20045;-35
2023/07/22 09:03:26;;;;;;;7.15;2.30;;;22.30;77.00;;;;;;10488028;28;20131;-36
2023/07/22 09:08:28;;;;;;;5.88;2.13;;;21.90;80.30;;;;;;10490619;28;20121;-36
2023/07/22 09:13:30;;;;;;;3.00;1.80;;;21.70;81.30;;;;;;10491311;28;20091;-36
2023/07/22 09:18:35;;;;;;;5.68;2.10;;;21.80;82.40;;;;;;10480941;28;20539;-34
2023/07/22 09:23:38;;;;;;;6.53;2.20;;;23.10;73.70;;;;;;10480034;28;20674;-35
2023/07/22 09:28:50;;;;;;;8.90;2.55;;;21.20;88.80;;;;;;10479815;28;20056;-35
2023/07/22 09:33:54;;;;;;;;;;;22.50;79.10;;;;;;10487680;28;20143;-36
2023/07/22 09:39:02;;;;;;;8.98;3.08;;;20.50;91.60;;;;;;10488459;28;20395;-35
2023/07/22 09:44:04;;;;;;;6.95;3.25;;;21.00;90.20;;;;;;10483863;28;20049;-36
2023/07/22 09:49:11;;;;;;;9.02;2.83;;;21.20;89.70;;;;;;10480695;28;20049;-38
2023/07/22 09:54:12;;;;;;;7.63;2.38;;;20.80;90.80;;;;;;10480473;28;20500;-37
2023/07/22 09:59:15;;;;;;;4.50;2.20;;;19.90;93.70;;;;;;10489274;28;20037;-36
2023/07/22 10:04:20;;;;;;;5.47;2.03;;;20.10;93.30;;;;;;10476766;28;20139;-36
2023/07/22 10:09:26;;;;;;;6.28;1.77;;;22.00;84.10;;;;;;10480059;28;20049;-37
2023/07/22 10:14:28;;;;;;;9.45;1.58;;;21.10;90.20;;;;;;10478836;28;20088;-37
2023/07/22 10:19:33;;;;;;;5.28;1.65;;;21.10;90.60;;;;;;10481104;28;20075;-38
2023/07/22 10:24:36;;;;;;;4.43;1.98;;;20.50;91.40;;;;;;10472083;28;20118;-37
2023/07/22 10:29:39;;;;;;;2.80;1.55;;;20.40;91.30;;;;;;10484157;28;20072;-36
2023/07/22 10:34:42;;;;;;;5.97;1.52;;;20.70;90.20;;;;;;10484255;28;20591;-36
2023/07/22 10:39:44;;;;;;;3.85;1.45;;;20.10;92.00;;;;;;10470614;28;20044;-37
2023/07/22 10:44:46;;;;;;;6.60;1.30;;;19.90;91.00;;;;;;10481649;28;20119;-37
2023/07/22 10:49:49;;;;;;;3.38;1.33;;;20.60;85.30;;;;;;10472422;28;20110;-32
2023/07/22 10:54:51;;;;;;;7.28;1.27;;;20.20;89.90;;;;;;10480217;28;20040;-38
2023/07/22 10:59:56;;;;;;;2.78;1.10;;;20.60;85.00;;;;;;10493731;28;20059;-37
2023/07/22 11:05:00;;;;;;;3.45;1.20;;;20.40;86.10;;;;;;10479037;28;20053;-36
2023/07/22 11:10:16;;;;;;;3.65;1.10;;;20.90;81.20;;;;;;10471416;28;20136;-36
2023/07/22 11:15:19;;;;;;;3.35;1.00;;;20.40;84.80;;;;;;10482375;28;20129;-36
2023/07/22 11:20:24;;;;;;;3.00;1.30;;;21.30;75.80;;;;;;10483099;28;20036;-36
2023/07/22 11:25:27;;;;;;;2.40;1.10;;;21.70;71.40;;;;;;10481013;28;20412;-37
2023/07/22 11:30:29;;;;;;;3.53;1.10;;;22.10;69.20;;;;;;10490945;28;20391;-37
2023/07/22 11:35:33;;;;;;;3.40;1.30;;;22.10;70.20;;;;;;10488868;28;20044;-37
2023/07/22 11:40:35;;;;;;;3.05;1.15;;;22.30;69.80;;;;;;10482627;28;20101;-37
2023/07/22 11:45:41;;;;;;;7.40;0.93;;;22.20;70.90;;;;;;10484846;28;20068;-38
2023/07/22 11:50:44;;;;;;;2.45;1.10;;;22.10;67.80;;;;;;10490123;28;20071;-37
2023/07/22 11:55:46;;;;;;;3.55;1.30;;;21.50;71.00;;;;;;10490012;28;20763;-37
2023/07/22 12:01:02;;;;;;;3.90;1.25;;;21.20;71.00;;;;;;10490641;28;20218;-39
2023/07/22 12:06:07;;;;;;;3.20;1.08;;;21.90;68.80;;;;;;10480970;28;20139;-37
2023/07/22 12:11:09;;;;;;;3.08;1.60;;;22.00;69.90;;;;;;10488842;28;20087;-36
2023/07/22 12:16:11;;;;;;;3.17;1.13;;;21.80;69.90;;;;;;10482561;28;20159;-37
2023/07/22 12:21:15;;;;;;;2.92;1.02;;;20.30;75.20;;;;;;10488184;28;20165;-37
2023/07/22 12:26:17;;;;;;;5.15;1.52;;;20.30;77.90;;;;;;10486643;28;20052;-35
2023/07/22 12:31:19;;;;;;;5.38;1.48;;;20.90;73.10;;;;;;10491405;28;20067;-44
2023/07/22 12:36:22;;;;;;;2.65;1.55;;;21.30;73.80;;;;;;10492258;28;20438;-35
2023/07/22 12:41:24;;;;;;;5.97;1.52;;;21.30;74.90;;;;;;10482030;28;20076;-36
2023/07/22 12:46:26;;;;;;;4.10;1.70;;;20.90;76.50;;;;;;10484999;28;20044;-35
2023/07/22 12:51:29;;;;;;;;;;;21.70;70.30;;;;;;10487259;28;20608;-37
2023/07/22 12:56:31;;;;;;;3.70;1.50;;;21.30;73.80;;;;;;10493028;28;20010;-37
2023/07/22 13:01:32;;;;;;;7.53;1.88;;;21.30;73.80;;;;;;10488114;28;20139;-36
2023/07/22 13:06:37;;;;;;;7.13;1.17;;;21.90;69.20;;;;;;10487037;28;20151;-37
2023/07/22 13:11:39;;;;;;;1.98;1.17;;;21.60;71.70;;;;;;10483857;28;20053;-37
2023/07/22 13:16:41;;;;;;;2.42;1.20;;;20.80;72.90;;;;;;10482916;28;20103;-36
2023/07/22 13:21:44;;;;;;;5.05;1.45;;;21.30;76.90;;;;;;10489564;28;20404;-37
2023/07/22 13:26:46;;;;;;;1.98;1.10;;;22.60;68.40;;;;;;10493406;28;20076;-37
2023/07/22 13:31:48;;;;;;;4.20;1.48;;;22.10;66.40;;;;;;10483104;28;20048;-37
2023/07/22 13:36:51;;;;;;;5.07;0.88;;;22.20;68.50;;;;;;10494184;28;20135;-37
2023/07/22 13:41:53;;;;;;;4.38;1.13;;;22.10;71.20;;;;;;10482996;28;20095;-37
2023/07/22 13:46:55;;;;;;;5.82;1.27;;;21.90;73.30;;;;;;10478786;28;20049;-36
2023/07/22 13:51:58;;;;;;;4.30;1.55;;;22.30;70.10;;;;;;10485340;28;20041;-34
2023/07/22 13:57:00;;;;;;;6.40;1.15;;;21.70;74.90;;;;;;10486079;28;20639;-38
2023/07/22 14:02:03;;;;;;;5.40;1.50;;;22.30;70.70;;;;;;10485021;28;20048;-37
2023/07/22 14:07:06;;;;;;;9.75;2.95;;;21.00;78.60;;;;;;10500590;28;20522;-37
2023/07/22 14:12:09;;;;;;;6.40;1.10;;;21.50;75.60;;;;;;10481218;28;20044;-35
2023/07/22 14:17:12;;;;;;;8.35;1.88;;;21.10;81.00;;;;;;10484355;28;20110;-36
2023/07/22 14:22:15;;;;;;;5.32;1.42;;;21.80;77.30;;;;;;10486510;28;20066;-36
2023/07/22 14:27:17;;;;;;;7.60;1.70;;;20.40;85.80;;;;;;10477747;28;20055;-35
2023/07/22 14:32:19;;;;;;;9.43;1.60;;;20.60;82.60;;;;;;10487210;28;20327;-35
2023/07/22 14:37:22;;;;;;;5.60;1.77;;;20.30;84.60;;;;;;10478896;28;20084;-37
2023/07/22 14:42:24;;;;;;;9.18;1.58;;;20.20;84.10;;;;;;10483228;28;20048;-37
2023/07/22 14:47:26;;;;;;;;;;;20.90;79.00;;;;;;10480380;28;20067;-37
2023/07/22 14:52:29;;;;;;;4.27;1.43;;;20.60;78.30;;;;;;10482713;28;19966;-38
2023/07/22 14:57:31;;;;;;;4.85;1.63;;;20.20;81.70;;;;;;10486359;28;20083;-36
2023/07/22 15:02:33;;;;;;;;;;;20.50;81.70;;;;;;10479953;28;20131;-36
2023/07/22 15:07:36;;;;;;;9.63;1.55;;;20.60;80.60;;;;;;10481113;28;20586;-35
2023/07/22 15:12:38;;;;;;;10.35;1.60;;;20.80;81.20;;;;;;10484805;28;20139;-36
2023/07/22 15:17:40;;;;;;;8.50;1.83;;;20.90;82.30;;;;;;10477160;28;20149;-37
2023/07/22 15:22:43;;;;;;;4.60;1.42;;;20.80;83.10;;;;;;10484729;28;20733;-37
2023/07/22 15:27:45;;;;;;;7.03;1.45;;;21.50;78.30;;;;;;10462585;28;20069;-37
2023/07/22 15:32:47;;;;;;;5.43;1.50;;;21.30;79.40;;;;;;10479787;28;20478;-36
2023/07/22 15:37:50;;;;;;;4.78;1.50;;;21.00;78.90;;;;;;10478253;28;20045;-36
2023/07/22 15:42:54;;;;;;;7.18;1.35;;;20.80;81.00;;;;;;10483030;28;20147;-37
2023/07/22 15:47:56;;;;;;;6.07;2.08;;;20.60;84.50;;;;;;10486947;28;20101;-38
2023/07/22 15:52:59;;;;;;;7.65;2.05;;;20.10;90.60;;;;;;10481569;28;20114;-36
2023/07/22 15:58:01;;;;;;;11.15;2.03;;;20.70;87.30;;;;;;10493541;28;20116;-37
2023/07/22 16:03:03;;;;;;;3.42;1.02;;;20.00;90.80;;;;;;10481918;28;20094;-37
2023/07/22 16:08:07;;;;;;;6.32;1.50;;;20.20;86.80;;;;;;10482947;28;20044;-36
2023/07/22 16:13:09;;;;;;;9.27;1.90;;;19.50;90.90;;;;;;10476266;28;20543;-37
2023/07/22 16:18:11;;;;;;;6.22;2.08;;;20.20;90.00;;;;;;10480648;28;20059;-37
2023/07/22 16:23:14;;;;;;;7.45;2.05;;;20.70;86.80;;;;;;10491154;28;20505;-36
2023/07/22 16:28:16;;;;;;;6.88;1.83;;;20.50;89.80;;;;;;10502022;28;20216;-36
2023/07/22 16:33:18;;;;;;;10.05;2.28;;;20.60;87.20;;;;;;10490401;28;20696;-35
2023/07/22 16:38:21;;;;;;;10.02;2.13;;;20.20;91.10;;;;;;10485967;28;20079;-34
2023/07/22 16:43:23;;;;;;;6.75;2.53;;;20.50;90.10;;;;;;10480764;28;20124;-37
2023/07/22 16:48:24;;;;;;;9.98;2.35;;;20.00;92.50;;;;;;10486262;28;20076;-36
2023/07/22 16:53:28;;;;;;;7.20;2.28;;;19.60;93.50;;;;;;10474625;28;20055;-36
2023/07/22 16:58:30;;;;;;;5.60;1.90;;;19.90;94.00;;;;;;10484670;28;20087;-37
2023/07/22 17:03:32;;;;;;;8.60;2.35;;;18.90;95.30;;;;;;10491657;28;20048;-35
2023/07/22 17:08:35;;;;;;;7.93;2.33;;;19.20;95.70;;;;;;10473083;28;20086;-37
2023/07/22 17:13:37;;;;;;;8.30;2.35;;;18.90;99.10;;;;;;10483461;28;20231;-37
2023/07/22 17:18:39;;;;;;;12.55;2.35;;;20.50;92.60;;;;;;10492982;28;20481;-36
2023/07/22 17:23:42;;;;;;;13.35;2.72;;;19.90;96.00;;;;;;10487287;28;20052;-37
2023/07/22 17:28:44;;;;;;;12.40;3.15;;;20.10;95.50;;;;;;10495450;28;20523;-36
2023/07/22 17:33:46;;;;;;;10.48;2.13;;;19.80;97.00;;;;;;10488317;28;20508;-36
2023/07/22 17:38:49;;;;;;;7.90;2.75;;;19.30;99.30;;;;;;10474160;28;20107;-38
2023/07/22 17:43:51;;;;;;;21.40;4.57;;;19.90;97.30;;;;;;10494025;28;20052;-36
2023/07/22 17:48:53;;;;;;;6.80;2.83;;;19.30;99.40;;;;;;10480724;28;20048;-36
2023/07/22 17:53:56;;;;;;;11.15;2.67;;;19.30;99.20;;;;;;10486907;28;20749;-35
2023/07/22 17:58:58;;;;;;;11.40;3.65;;;19.80;98.70;;;;;;10497301;28;20041;-36
2023/07/22 18:04:00;;;;;;;7.57;2.60;;;19.90;97.80;;;;;;10488229;28;20102;-36
2023/07/22 18:09:03;;;;;;;9.50;3.55;;;18.30;99.90;;;;;;10487465;28;20507;-35
2023/07/22 18:14:05;;;;;;;9.75;3.58;;;18.00;99.90;;;;;;10478140;28;20088;-36
2023/07/22 18:19:07;;;;;;;8.10;2.77;;;17.70;99.90;;;;;;10485141;28;20040;-37
2023/07/22 18:24:10;;;;;;;9.70;3.05;;;18.40;99.90;;;;;;10500842;28;20506;-37
2023/07/22 18:29:12;;;;;;;10.95;3.35;;;19.10;99.70;;;;;;10488588;28;20575;-36
2023/07/22 18:34:15;;;;;;;16.77;3.00;;;19.90;96.80;;;;;;10489083;28;20490;-39
2023/07/22 18:39:19;;;;;;;7.28;2.38;;;20.00;96.90;;;;;;10488084;28;20469;-37
2023/07/22 18:44:21;;;;;;;6.10;2.28;;;20.50;94.70;;;;;;10478978;28;20056;-36
2023/07/22 18:49:23;;;;;;;10.68;2.83;;;20.00;97.00;;;;;;10475877;28;20064;-36
2023/07/22 18:54:26;;;;;;;4.85;2.42;;;19.70;97.80;;;;;;10483535;28;20045;-36
2023/07/22 18:59:28;;;;;;;6.13;2.50;;;20.10;96.80;;;;;;10478669;28;20041;-36
2023/07/22 19:04:30;;;;;;;8.35;2.08;;;21.60;91.00;;;;;;10480395;28;20094;-37
2023/07/22 19:09:33;;;;;;;7.03;2.10;;;22.20;88.30;;;;;;10485106;28;20094;-38
2023/07/22 19:14:36;;;;;;;5.43;2.38;;;23.10;80.10;;;;;;10485080;28;20564;-34
2023/07/22 19:19:41;;;;;;;5.97;2.58;;;23.70;76.70;;;;;;10486626;28;20051;-37
2023/07/22 19:24:46;;;;;;;7.53;2.20;;;22.90;85.90;;;;;;10473880;28;20071;-37
2023/07/22 19:29:47;;;;;;;5.05;2.15;;;21.40;95.00;;;;;;10483627;28;20086;-37
2023/07/22 19:34:50;;;;;;;;;;;23.30;82.20;;;;;;10489173;28;20052;-37
2023/07/22 19:39:53;;;;;;;9.10;2.47;;;22.20;90.10;;;;;;10483621;28;19975;-38
2023/07/22 19:44:55;;;;;;;12.07;3.63;;;22.60;85.80;;;;;;10480373;28;20098;-36
2023/07/22 19:49:57;;;;;;;6.95;3.33;;;19.40;99.90;;;;;;10485326;28;20075;-37
2023/07/22 19:55:00;;;;;;;8.23;3.33;;;18.50;99.90;;;;;;10482231;28;20090;-37
2023/07/22 20:00:02;;;;;;;5.43;2.60;;;19.10;99.90;;;;;;10493164;28;20048;-34
2023/07/22 20:05:04;;;;;;;;;;;20.70;96.60;;;;;;10493334;28;20563;-36
2023/07/22 20:10:09;;;;;;;5.23;3.10;;;19.30;99.90;;;;;;10490531;28;20007;-37
2023/07/22 20:15:11;;;;;;;5.85;2.22;;;20.00;97.70;;;;;;10492063;28;20060;-37
2023/07/22 20:20:13;;;;;;;8.80;3.42;;;21.30;92.40;;;;;;10494441;28;20056;-37
2023/07/22 20:25:16;;;;;;;6.47;3.03;;;20.70;94.40;;;;;;10493912;28;20046;-37
2023/07/22 20:30:19;;;;;;;6.93;3.25;;;20.80;95.10;;;;;;10491953;28;20049;-37
2023/07/22 20:35:21;;;;;;;9.32;3.85;;;21.30;94.00;;;;;;10477212;28;20079;-35
2023/07/22 20:40:24;;;;;;;5.75;2.92;;;21.90;89.70;;;;;;10487483;28;20499;-37
2023/07/22 20:45:26;;;;;;;4.10;2.78;;;21.70;90.60;;;;;;10490244;28;20131;-36
2023/07/22 20:50:27;;;;;;;5.63;2.28;;;22.70;82.80;;;;;;10483477;28;20477;-37
2023/07/22 20:55:31;;;;;;;4.78;2.28;;;21.10;92.70;;;;;;10481133;28;20507;-37
2023/07/22 21:00:33;;;;;;;9.23;3.92;;;21.90;90.50;;;;;;10491808;28;20693;-37
2023/07/22 21:05:35;;;;;;;5.88;2.53;;;22.10;88.30;;;;;;10495214;28;20110;-36
2023/07/22 21:10:38;;;;;;;5.47;2.65;;;23.10;78.70;;;;;;10492875;28;20041;-37
2023/07/22 21:15:40;;;;;;;6.00;3.45;;;21.90;88.70;;;;;;10496407;28;20232;-37
2023/07/22 21:20:42;;;;;;;4.35;2.53;;;21.90;90.30;;;;;;10492864;28;20094;-36
2023/07/22 21:25:45;;;;;;;4.20;2.08;;;22.80;80.00;;;;;;10486176;28;20551;-37
2023/07/22 21:30:47;;;;;;;6.50;3.15;;;23.00;78.40;;;;;;10492367;28;20072;-37
2023/07/22 21:35:49;;;;;;;3.65;2.33;;;23.30;75.20;;;;;;10489611;28;20489;-38
2023/07/22 21:40:54;;;;;;;5.78;2.45;;;23.50;74.30;;;;;;10490043;28;20048;-37
2023/07/22 21:45:56;;;;;;;4.72;2.08;;;23.30;76.00;;;;;;10474459;28;20056;-35
2023/07/22 21:50:58;;;;;;;;;;;24.00;70.30;;;;;;10485086;28;20489;-38
2023/07/22 21:56:01;;;;;;;4.40;2.60;;;24.10;70.10;;;;;;10491466;28;19930;-37
2023/07/22 22:01:05;;;;;;;3.00;2.00;;;24.10;69.80;;;;;;10488804;28;20132;-37
2023/07/22 22:06:07;;;;;;;7.30;3.03;;;24.30;69.10;;;;;;10485352;28;20041;-37
2023/07/22 22:11:11;;;;;;;4.72;2.65;;;24.50;67.90;;;;;;10474275;28;20045;-35
2023/07/22 22:16:12;;;;;;;6.38;2.72;;;24.40;68.30;;;;;;10499771;28;20476;-37
2023/07/22 22:21:14;;;;;;;5.07;2.53;;;24.10;69.00;;;;;;10485396;28;20480;-37
2023/07/22 22:26:18;;;;;;;5.22;2.97;;;24.40;67.70;;;;;;10485566;28;20508;-37
2023/07/22 22:31:20;;;;;;;5.22;3.15;;;24.20;68.40;;;;;;10478768;28;20149;-37
2023/07/22 22:36:21;;;;;;;4.20;2.25;;;24.60;66.80;;;;;;10483632;28;20092;-37
2023/07/22 22:41:24;;;;;;;;;;;24.60;66.80;;;;;;10477389;28;20127;-38
2023/07/22 22:46:26;;;;;;;6.53;2.40;;;24.50;67.40;;;;;;10489348;28;19967;-37
2023/07/22 22:51:28;;;;;;;3.25;1.85;;;24.70;66.50;;;;;;10476192;28;20507;-37
2023/07/22 22:56:32;;;;;;;3.38;2.17;;;24.70;66.10;;;;;;10481718;28;20076;-37
2023/07/22 23:01:33;;;;;;;4.70;2.40;;;24.70;65.90;;;;;;10481154;28;20052;-36
2023/07/22 23:06:35;;;;;;;3.47;2.17;;;24.70;66.00;;;;;;10474614;28;20037;-37
2023/07/22 23:11:38;;;;;;;;;;;24.70;65.80;;;;;;10485174;28;20083;-37
2023/07/22 23:16:40;;;;;;;3.38;2.50;;;24.70;65.70;;;;;;10476471;28;20304;-37
2023/07/22 23:21:42;;;;;;;5.95;2.47;;;24.70;65.50;;;;;;10479456;28;20135;-36
2023/07/22 23:26:45;;;;;;;;;;;24.70;65.20;;;;;;10484134;28;20411;-36
2023/07/22 23:31:47;;;;;;;4.43;2.13;;;24.40;66.20;;;;;;10491959;28;20541;-38
2023/07/22 23:36:49;;;;;;;2.78;2.20;;;24.50;65.90;;;;;;10489531;28;20044;-36
2023/07/22 23:41:52;;;;;;;5.05;2.10;;;24.50;65.50;;;;;;10490587;28;20469;-35
2023/07/22 23:46:54;;;;;;;3.28;2.10;;;24.50;65.40;;;;;;10478218;28;20072;-36
2023/07/22 23:51:55;;;;;;;4.70;2.42;;;24.50;65.80;;;;;;10485752;28;20048;-34
2023/07/22 23:56:58;;;;;;;;;;;24.50;65.40;;;;;;10498930;28;20139;-37
